Time;durP1;ratioP1;P1;durP2;ratioP2;P2;SDS_P1;SDS_P2;PMS_P1;PMS_P2;Temp;Humidity;BMP_temperature;BMP_pressure;BME280_temperature;BME280_humidity;BME280_pressure;Samples;Min_cycle;Max_cycle;Signal;HPM_P1;HPM_P2
2021/03/19 00:02:45;;;;;;;;;;;0.80;99.90;;;-0.26;90.48;95629.72;10287803;28;2463;-88
2021/03/19 00:07:50;;;;;;;;;;;0.80;99.90;;;-0.26;90.82;95635.00;10275519;28;2396;-89
2021/03/19 00:12:52;;;;;;;;;;;0.70;99.90;;;-0.30;91.62;95633.81;10252016;29;2270;-88
2021/03/19 00:17:54;;;;;;;;;;;2.90;99.90;;;-0.33;92.12;95634.22;10256421;28;1740;-86
2021/03/19 00:23:06;;;;;;;;;;;0.70;99.90;;;-0.37;91.63;95630.41;10228041;29;2242;-88
2021/03/19 00:28:14;;;;;;;;;;;1.50;99.90;;;-0.36;91.40;95624.09;10246643;29;2372;-89
2021/03/19 00:33:17;;;;;;;;;;;1.80;99.90;;;-0.37;92.06;95619.84;10234109;29;2480;-89
2021/03/19 00:38:19;;;;;;;;;;;0.70;99.90;;;-0.35;91.51;95620.44;10230934;29;2396;-90
2021/03/19 00:43:22;;;;;;;;;;;0.60;99.90;;;-0.43;91.17;95615.38;10244154;29;2511;-88
2021/03/19 00:48:24;;;;;;;;;;;0.60;99.90;;;-0.43;91.53;95607.47;10255972;29;1247;-87
2021/03/19 00:53:30;;;;;;;;;;;1.80;99.90;;;-0.38;91.11;95602.34;10272479;29;2670;-88
2021/03/19 00:58:32;;;;;;;;;;;0.60;99.90;;;-0.40;91.39;95607.03;10252711;29;2355;-89
2021/03/19 01:03:34;;;;;;;;;;;1.40;99.90;;;-0.41;92.24;95606.22;10252859;28;2095;-89
2021/03/19 01:08:40;;;;;;;;;;;2.20;99.90;;;-0.34;91.81;95600.91;10236412;29;2266;-89
2021/03/19 01:13:42;;;;;;;;;;;2.30;99.90;;;-0.38;91.94;95595.25;10234582;29;2372;-89
2021/03/19 01:18:45;;;;;;;;;;;0.60;99.90;;;-0.36;92.26;95595.03;10276710;28;2380;-87
2021/03/19 01:23:48;;;;;;;;;;;2.20;99.90;;;-0.38;92.11;95583.84;10242440;29;2040;-87
2021/03/19 01:28:51;;;;;;;;;;;0.60;99.90;;;-0.39;91.28;95582.25;10271417;29;1984;-87
2021/03/19 01:33:58;;;;;;;;;;;0.70;99.90;;;-0.42;91.82;95577.41;10227143;29;2059;-87
2021/03/19 01:39:04;;;;;;;;;;;1.70;99.90;;;-0.47;91.67;95578.00;10226030;29;2508;-88
2021/03/19 01:44:06;;;;;;;;;;;0.50;99.90;;;-0.45;92.11;95572.50;10244954;29;1936;-90
2021/03/19 01:49:09;;;;;;;;;;;1.80;99.90;;;-0.42;91.47;95566.84;10255112;29;2003;-88
2021/03/19 01:54:11;;;;;;;;;;;2.30;99.90;;;-0.42;90.83;95572.13;10256956;29;2749;-87
2021/03/19 01:59:17;;;;;;;;;;;1.00;99.90;;;-0.43;91.36;95571.31;10259535;29;1327;-87
2021/03/19 02:04:20;;;;;;;;;;;2.90;99.90;;;-0.43;90.66;95559.94;10250137;29;1843;-88
2021/03/19 02:09:23;;;;;;;;;;;0.60;99.90;;;-0.42;91.12;95561.56;10245494;29;2317;-88
2021/03/19 02:14:27;;;;;;;;;;;0.60;99.90;;;-0.45;91.06;95560.13;10238998;29;2103;-89
2021/03/19 02:19:30;;;;;;;;;;;2.40;99.90;;;-0.44;90.54;95560.97;10253179;29;1178;-87
2021/03/19 02:24:32;;;;;;;;;;;0.90;99.90;;;-0.40;90.29;95555.03;10231919;29;2652;-89
2021/03/19 02:29:34;;;;;;;;;;;0.70;99.90;;;-0.36;89.64;95555.44;10245592;29;1891;-87
2021/03/19 02:34:37;;;;;;;;;;;0.50;99.90;;;-0.32;89.08;95561.88;10250091;29;2405;-87
2021/03/19 02:39:41;;;;;;;;;;;0.60;99.90;;;-0.28;89.09;95563.09;10242762;29;2270;-87
2021/03/19 02:44:44;;;;;;;;;;;2.00;99.90;;;-0.36;88.65;95555.44;10264316;28;2066;-88
2021/03/19 02:49:46;;;;;;;;;;;1.80;99.90;;;-0.45;88.40;95556.66;10252054;29;2110;-87
2021/03/19 02:54:53;;;;;;;;;;;2.90;99.90;;;-0.56;87.96;95552.88;10235795;29;2355;-88
2021/03/19 02:59:55;;;;;;;;;;;1.80;99.90;;;-0.53;88.79;95549.00;10263671;28;1963;-87
2021/03/19 03:04:57;;;;;;;;;;;1.10;99.90;;;-0.48;88.96;95552.63;10250629;29;2481;-87
2021/03/19 03:09:59;;;;;;;;;;;1.20;99.90;;;-0.54;88.78;95545.56;10237210;29;1895;-87
2021/03/19 03:15:01;;;;;;;;;;;1.20;99.90;;;-0.51;88.88;95552.22;10244786;29;2602;-88
2021/03/19 03:20:04;;;;;;;;;;;0.40;99.90;;;-0.47;88.71;95558.72;10282073;28;2201;-88
2021/03/19 03:25:15;;;;;;;;;;;2.00;99.90;;;-0.35;89.45;95557.03;10266027;29;1916;-87
2021/03/19 03:30:17;;;;;;;;;;;1.70;99.90;;;-0.39;88.84;95553.19;10243059;29;2201;-86
2021/03/19 03:35:19;;;;;;;;;;;1.40;99.90;;;-0.40;87.99;95548.94;10248245;29;2369;-87
2021/03/19 03:40:22;;;;;;;;;;;2.20;99.90;;;-0.45;87.04;95541.63;10260413;29;1996;-88
2021/03/19 03:45:24;;;;;;;;;;;0.50;99.90;;;-0.41;87.72;95536.75;10250241;28;2246;-88
2021/03/19 03:50:27;;;;;;;;;;;2.00;99.90;;;-0.36;86.99;95534.31;10242821;29;2166;-88
2021/03/19 03:55:39;;;;;;;;;;;2.70;99.90;;;-0.38;86.32;95537.16;10226146;29;2541;-87
2021/03/19 04:00:41;;;;;;;;;;;1.80;99.90;;;-0.37;86.55;95537.97;10228892;29;2267;-88
2021/03/19 04:05:44;;;;;;;;;;;1.60;99.90;;;-0.30;86.98;95534.25;10241916;29;1845;-88
2021/03/19 04:10:46;;;;;;;;;;;0.70;99.90;;;-0.35;87.35;95533.28;10227347;29;2150;-87
2021/03/19 04:15:50;;;;;;;;;;;0.70;99.90;;;-0.32;86.98;95538.13;10223829;28;2300;-89
2021/03/19 04:20:53;;;;;;;;;;;2.00;99.90;;;-0.31;86.73;95537.13;10247950;28;2324;-88
2021/03/19 04:26:01;;;;;;;;;;;2.60;99.90;;;-0.25;87.13;95536.28;10263025;28;2694;-86
2021/03/19 04:31:05;;;;;;;;;;;0.80;99.90;;;-0.29;85.61;95541.16;10246872;29;2599;-87
2021/03/19 04:36:07;;;;;;;;;;;2.20;99.90;;;-0.28;86.69;95541.97;10225677;29;2035;-88
2021/03/19 04:41:09;;;;;;;;;;;2.20;99.90;;;-0.26;87.27;95542.56;10218506;29;2550;-87
2021/03/19 04:46:12;;;;;;;;;;;1.80;99.90;;;-0.27;86.69;95549.69;10235453;29;2514;-87
2021/03/19 04:51:14;;;;;;;;;;;2.50;99.90;;;-0.25;86.76;95546.00;10221108;29;1981;-88
2021/03/19 04:56:25;;;;;;;;;;;1.70;99.90;;;-0.22;87.20;95550.88;10223900;28;2486;-88
2021/03/19 05:01:28;;;;;;;;;;;1.90;99.90;;;-0.30;86.67;95555.41;10231268;29;2458;-87
2021/03/19 05:06:31;;;;;;;;;;;0.80;99.90;;;-0.35;86.81;95557.84;10250784;29;2080;-88
2021/03/19 05:11:34;;;;;;;;;;;0.70;99.90;;;-0.39;86.54;95555.84;10263136;28;2163;-87
2021/03/19 05:16:37;;;;;;;;;;;1.30;99.90;;;-0.46;86.53;95549.78;10263153;28;2651;-87
2021/03/19 05:21:39;;;;;;;;;;;2.00;99.90;;;-0.47;86.20;95558.72;10235477;29;2467;-88
2021/03/19 05:26:45;;;;;;;;;;;1.80;99.90;;;-0.51;85.84;95557.50;10224172;29;2598;-87
2021/03/19 05:31:47;;;;;;;;;;;1.90;99.90;;;-0.52;85.91;95563.81;10220161;29;2351;-86
2021/03/19 05:36:50;;;;;;;;;;;3.00;99.90;;;-0.46;86.55;95571.72;10220542;29;2525;-86
2021/03/19 05:41:52;;;;;;;;;;;0.50;99.90;;;-0.44;86.37;95571.53;10224111;29;2547;-84
2021/03/19 05:47:00;;;;;;;;;;;1.80;99.90;;;-0.38;86.41;95573.28;10235584;29;2473;-87
2021/03/19 05:52:03;;;;;;;;;;;-0.10;99.90;;;-0.26;86.72;95571.63;10236157;29;2399;-87
2021/03/19 05:57:09;;;;;;;;;;;1.80;99.90;;;-0.27;85.50;95583.22;10237252;29;1998;-88
2021/03/19 06:02:13;;;;;;;;;;;2.00;99.90;;;-0.17;85.72;95582.78;10247031;29;2427;-88
2021/03/19 06:07:19;;;;;;;;;;;2.10;99.90;;;-0.17;84.71;95585.41;10253730;29;2419;-87
2021/03/19 06:12:21;;;;;;;;;;;0.80;99.90;;;-0.12;84.49;95586.41;10253881;28;2201;-86
2021/03/19 06:17:28;;;;;;;;;;;2.70;99.90;;;-0.06;85.15;95590.03;10285740;28;1448;-87
2021/03/19 06:22:53;;;;;;;;;;;;;;;;;;;;;
2021/03/19 06:28:09;;;;;;;;;;;2.40;99.90;;;0.06;84.23;95587.50;10297587;28;2547;-86
2021/03/19 06:33:14;;;;;;;;;;;1.80;99.90;;;0.20;83.70;95594.34;10265216;28;1899;-86
2021/03/19 06:38:31;;;;;;;;;;;2.30;99.90;;;0.26;82.46;95590.88;10260956;28;1236;-88
2021/03/19 06:43:34;;;;;;;;;;;2.80;99.90;;;0.45;82.53;95589.09;10267212;28;1389;-84
2021/03/19 06:48:36;;;;;;;;;;;1.30;99.90;;;0.55;81.90;95589.41;10261899;28;2388;-85
2021/03/19 06:53:38;;;;;;;;;;;1.40;99.90;;;0.95;81.67;95589.88;10277800;28;1895;-83
2021/03/19 06:58:40;;;;;;;;;;;1.70;99.90;;;1.09;79.77;95585.31;10267620;28;2280;-85
2021/03/19 07:03:42;;;;;;;;;;;1.80;99.90;;;1.55;78.30;95590.09;10228286;29;2089;-85
2021/03/19 07:08:44;;;;;;;;;;;2.20;99.90;;;1.66;76.52;95591.22;10249947;29;2572;-84
2021/03/19 07:13:46;;;;;;;;;;;2.60;99.90;;;1.72;75.12;95594.78;10239952;29;1895;-82
2021/03/19 07:18:48;;;;;;;;;;;3.80;99.90;;;1.72;75.33;95598.28;10241784;29;2587;-82
2021/03/19 07:23:50;;;;;;;;;;;3.30;99.90;;;1.84;75.79;95598.31;10274140;29;1949;-85
2021/03/19 07:28:52;;;;;;;;;;;2.50;99.90;;;1.97;75.20;95608.75;10293449;28;1710;-83
2021/03/19 07:33:54;;;;;;;;;;;2.70;99.90;;;1.98;75.43;95609.56;10270291;28;1899;-84
2021/03/19 07:38:56;;;;;;;;;;;4.10;99.90;;;1.81;77.17;95609.38;10255352;28;1770;-81
2021/03/19 07:43:57;;;;;;;;;;;3.70;99.90;;;1.73;75.18;95609.69;10228357;29;2428;-84
2021/03/19 07:48:59;;;;;;;;;;;2.60;99.90;;;2.03;75.35;95613.16;10229524;29;2379;-82
2021/03/19 07:54:02;;;;;;;;;;;2.70;99.90;;;2.32;75.33;95613.38;10225639;29;2497;-83
2021/03/19 07:59:04;;;;;;;;;;;3.00;99.90;;;2.17;76.04;95619.91;10211263;29;2427;-85
2021/03/19 08:04:05;;;;;;;;;;;3.00;99.90;;;2.54;76.69;95614.47;10213182;29;2196;-82
2021/03/19 08:09:07;;;;;;;;;;;3.10;99.90;;;2.52;76.14;95618.41;10226215;29;2273;-82
2021/03/19 08:14:09;;;;;;;;;;;3.20;99.90;;;2.47;71.86;95619.09;10229323;29;2385;-82
2021/03/19 08:19:11;;;;;;;;;;;3.30;99.90;;;2.24;77.35;95619.03;10237921;29;2375;-82
2021/03/19 08:24:13;;;;;;;;;;;3.20;99.90;;;2.22;74.84;95623.72;10232315;29;2440;-83
2021/03/19 08:29:15;;;;;;;;;;;3.20;99.90;;;2.78;74.72;95625.16;10242661;28;2274;-85
2021/03/19 08:34:16;;;;;;;;;;;3.50;99.90;;;2.17;73.13;95630.53;10219890;29;2666;-83
2021/03/19 08:39:18;;;;;;;;;;;3.30;99.90;;;2.53;74.32;95638.59;10219155;29;2437;-84
2021/03/19 08:44:20;;;;;;;;;;;3.40;99.90;;;2.81;74.27;95641.47;10222499;29;2349;-85
2021/03/19 08:49:22;;;;;;;;;;;3.70;99.90;;;2.77;77.54;95642.94;10222858;29;2359;-83
2021/03/19 08:54:24;;;;;;;;;;;3.60;99.90;;;2.92;77.55;95642.50;10231860;29;1979;-85
2021/03/19 08:59:30;;;;;;;;;;;3.80;99.90;;;2.80;77.76;95652.28;10250282;29;2427;-82
2021/03/19 09:04:32;;;;;;;;;;;3.70;99.90;;;2.53;78.74;95650.00;10246835;29;2019;-83
2021/03/19 09:09:34;;;;;;;;;;;3.70;99.90;;;2.81;75.40;95653.91;10258883;29;2294;-81
2021/03/19 09:14:36;;;;;;;;;;;3.60;99.90;;;2.80;77.15;95660.25;10259600;29;2306;-81
2021/03/19 09:19:40;;;;;;;;;;;5.30;99.90;;;2.93;77.55;95668.03;10266663;29;1968;-82
2021/03/19 09:24:45;;;;;;;;;;;4.40;99.90;;;2.43;76.13;95665.69;10252893;29;2361;-83
2021/03/19 09:29:49;;;;;;;;;;;4.80;99.90;;;2.66;77.87;95664.94;10217224;29;2489;-82
2021/03/19 09:34:51;;;;;;;;;;;3.50;99.90;;;3.19;78.25;95661.47;10241645;28;2130;-82
2021/03/19 09:39:53;;;;;;;;;;;3.70;99.90;;;3.03;75.75;95662.94;10271303;28;1763;-81
2021/03/19 09:44:57;;;;;;;;;;;3.90;99.90;;;2.76;74.17;95664.41;10248167;28;2344;-80
2021/03/19 09:50:04;;;;;;;;;;;5.20;99.90;;;2.92;77.53;95664.53;10240172;29;2294;-84
2021/03/19 09:55:06;;;;;;;;;;;3.70;99.90;;;3.00;74.68;95668.72;10241672;29;2028;-82
2021/03/19 10:00:15;;;;;;;;;;;3.80;99.90;;;3.22;73.27;95664.47;10240545;29;2477;-82
2021/03/19 10:05:17;;;;;;;;;;;4.00;99.90;;;2.96;76.65;95660.41;10279004;29;1874;-82
2021/03/19 10:10:18;;;;;;;;;;;4.10;99.90;;;3.26;77.62;95662.19;10262985;29;2223;-83
2021/03/19 10:15:21;;;;;;;;;;;6.00;99.90;;;3.41;76.85;95667.84;10271303;29;1986;-84
2021/03/19 10:20:22;;;;;;;;;;;4.20;99.90;;;3.67;75.49;95669.22;10260845;29;2423;-84
2021/03/19 10:25:25;;;;;;;;;;;4.40;99.90;;;3.62;75.76;95663.78;10247593;28;2040;-85
2021/03/19 10:30:38;;;;;;;;;;;4.40;99.90;;;3.93;74.07;95664.44;10252622;29;2255;-86
2021/03/19 10:35:40;;;;;;;;;;;4.50;99.90;;;3.87;78.00;95660.06;10235747;29;2276;-82
2021/03/19 10:40:42;;;;;;;;;;;4.60;99.90;;;3.40;75.03;95654.78;10250815;29;2766;-84
2021/03/19 10:45:44;;;;;;;;;;;4.50;99.90;;;3.75;78.86;95662.72;10240094;29;2272;-84
2021/03/19 10:50:46;;;;;;;;;;;4.40;99.90;;;4.11;74.63;95656.31;10236095;29;2539;-83
2021/03/19 10:55:48;;;;;;;;;;;4.80;99.90;;;4.33;71.64;95654.63;10225062;29;2354;-84
2021/03/19 11:01:03;;;;;;;;;;;4.90;99.90;;;4.31;71.13;95663.88;10231112;28;2247;-82
2021/03/19 11:06:05;;;;;;;;;;;5.20;99.90;;;4.85;69.23;95662.50;10243867;29;2290;-84
2021/03/19 11:11:07;;;;;;;;;;;5.70;99.90;;;4.49;69.90;95662.88;10232633;29;2340;-82
2021/03/19 11:16:09;;;;;;;;;;;5.80;99.90;;;4.08;71.77;95654.13;10237841;29;2331;-84
2021/03/19 11:21:11;;;;;;;;;;;6.50;99.90;;;3.81;72.32;95656.47;10223211;29;2410;-84
2021/03/19 11:26:12;;;;;;;;;;;5.00;99.90;;;3.47;70.51;95656.28;10250577;28;2194;-82
2021/03/19 11:31:25;;;;;;;;;;;5.10;99.90;;;3.27;73.77;95662.97;10222464;29;2435;-83
2021/03/19 11:36:27;;;;;;;;;;;5.70;99.90;;;3.74;69.44;95661.91;10230832;29;2378;-82
2021/03/19 11:41:29;;;;;;;;;;;4.60;99.90;;;3.76;67.45;95651.88;10230170;29;2444;-83
2021/03/19 11:46:31;;;;;;;;;;;4.70;99.90;;;3.95;67.22;95651.72;10226981;29;2425;-82
2021/03/19 11:51:37;;;;;;;;;;;6.00;99.90;;;4.67;67.88;95641.41;10234247;29;2448;-83
2021/03/19 11:56:38;;;;;;;;;;;5.20;99.90;;;5.21;64.42;95632.94;10237233;29;2208;-82
2021/03/19 12:01:48;;;;;;;;;;;6.00;99.90;;;4.83;61.92;95637.13;10212799;29;2417;-81
2021/03/19 12:06:51;;;;;;;;;;;6.10;99.90;;;4.44;65.52;95636.97;10245300;28;2380;-84
2021/03/19 12:11:53;;;;;;;;;;;5.60;99.90;;;4.39;67.41;95636.06;10242586;29;1930;-82
2021/03/19 12:16:56;;;;;;;;;;;6.30;99.90;;;3.45;66.69;95641.63;10232813;29;2123;-84
2021/03/19 12:22:01;;;;;;;;;;;6.40;99.90;;;3.56;69.10;95638.13;10247384;29;2523;-83
2021/03/19 12:27:09;;;;;;;;;;;5.40;99.90;;;4.64;64.33;95623.22;10261214;28;2321;-83
2021/03/19 12:32:12;;;;;;;;;;;5.10;99.90;;;5.70;60.08;95620.59;10248247;29;2404;-83
2021/03/19 12:37:14;;;;;;;;;;;6.10;99.90;;;5.72;54.95;95618.50;10226726;29;2017;-85
2021/03/19 12:42:16;;;;;;;;;;;6.70;99.90;;;5.68;57.40;95612.06;10228936;29;2550;-84
2021/03/19 12:47:19;;;;;;;;;;;6.60;99.90;;;5.27;58.04;95616.78;10239921;29;2290;-83
2021/03/19 12:52:21;;;;;;;;;;;6.40;99.90;;;5.00;56.03;95610.50;10225353;29;2413;-85
2021/03/19 12:57:24;;;;;;;;;;;6.10;98.10;;;4.34;59.75;95620.84;10233646;29;2385;-83
2021/03/19 13:02:34;;;;;;;;;;;5.40;98.00;;;3.41;61.90;95630.63;10231118;29;2210;-86
2021/03/19 13:07:37;;;;;;;;;;;6.70;99.10;;;3.67;66.62;95621.34;10247886;29;2378;-84
2021/03/19 13:12:39;;;;;;;;;;;4.50;99.90;;;3.70;66.67;95626.22;10230238;29;2469;-83
2021/03/19 13:17:42;;;;;;;;;;;6.20;99.90;;;4.01;65.90;95627.66;10241556;29;2397;-82
2021/03/19 13:22:45;;;;;;;;;;;4.80;99.90;;;4.17;61.96;95628.75;10265496;29;2442;-86
2021/03/19 13:27:48;;;;;;;;;;;5.00;99.90;;;4.37;60.66;95628.34;10252451;29;2511;-83
2021/03/19 13:33:00;;;;;;;;;;;6.40;99.90;;;4.40;61.90;95621.75;10260903;29;2464;-83
2021/03/19 13:38:02;;;;;;;;;;;6.80;99.90;;;4.24;60.39;95618.78;10261303;29;1994;-87
2021/03/19 13:43:05;;;;;;;;;;;7.00;99.90;;;4.28;61.17;95624.44;10235322;29;2414;-87
2021/03/19 13:48:07;;;;;;;;;;;6.40;99.90;;;3.97;62.91;95631.03;10242298;29;2225;-86
2021/03/19 13:53:10;;;;;;;;;;;5.00;99.90;;;4.23;60.78;95627.81;10243256;29;2546;-85
2021/03/19 13:58:12;;;;;;;;;;;5.80;99.90;;;4.64;57.86;95625.88;10235052;29;2137;-86
2021/03/19 14:03:25;;;;;;;;;;;6.80;99.90;;;3.92;59.61;95626.41;10252447;29;2385;-85
2021/03/19 14:08:27;;;;;;;;;;;5.70;97.00;;;4.52;57.36;95617.19;10262366;29;2349;-84
2021/03/19 14:13:29;;;;;;;;;;;7.10;97.60;;;5.03;56.40;95610.03;10248237;29;2186;-83
2021/03/19 14:18:31;;;;;;;;;;;7.20;96.70;;;5.04;54.09;95622.31;10249214;29;2322;-82
2021/03/19 14:23:34;;;;;;;;;;;7.00;92.80;;;5.14;54.25;95622.44;10261141;29;2281;-85
2021/03/19 14:28:37;;;;;;;;;;;7.60;92.40;;;4.89;56.34;95626.31;10247240;29;2397;-84
2021/03/19 14:33:52;;;;;;;;;;;7.10;92.70;;;4.74;55.75;95633.25;10262862;29;2333;-84
2021/03/19 14:38:55;;;;;;;;;;;6.40;92.40;;;3.21;67.84;95649.59;10265896;29;2468;-85
2021/03/19 14:43:57;;;;;;;;;;;4.90;99.90;;;2.47;74.56;95656.22;10277250;29;2434;-85
2021/03/19 14:49:19;;;;;;;;;;;4.40;99.90;;;1.74;77.64;95667.75;10279020;28;1700;-84
2021/03/19 14:54:22;;;;;;;;;;;3.00;99.90;;;1.49;78.76;95678.41;10273986;28;1899;-85
2021/03/19 14:59:26;;;;;;;;;;;3.60;99.90;;;1.65;76.13;95674.34;10275067;28;1265;-84
2021/03/19 15:04:28;;;;;;;;;;;2.60;99.90;;;1.67;75.37;95676.81;10268838;28;2016;-84
2021/03/19 15:09:38;;;;;;;;;;;2.70;99.90;;;2.04;74.05;95693.53;10259104;29;1266;-89
2021/03/19 15:14:44;;;;;;;;;;;2.80;99.90;;;1.56;74.63;95695.03;10242941;29;2438;-86
2021/03/19 15:19:48;;;;;;;;;;;2.70;99.90;;;1.71;75.58;95693.88;10246434;29;2266;-84
2021/03/19 15:24:50;;;;;;;;;;;2.70;99.90;;;1.38;77.77;95699.50;10272621;28;2298;-85
2021/03/19 15:29:52;;;;;;;;;;;2.50;99.90;;;1.45;76.69;95702.88;10245347;29;1708;-86
2021/03/19 15:34:54;;;;;;;;;;;2.50;99.90;;;1.63;75.85;95714.31;10247807;29;2341;-84
2021/03/19 15:39:56;;;;;;;;;;;2.60;99.90;;;1.60;75.80;95714.78;10240129;29;2140;-82
2021/03/19 15:45:14;;;;;;;;;;;2.70;99.90;;;1.73;78.13;95718.31;10225865;29;2052;-84
2021/03/19 15:50:18;;;;;;;;;;;2.60;99.90;;;1.76;77.94;95717.88;10235487;29;2275;-83
2021/03/19 15:55:20;;;;;;;;;;;2.80;99.90;;;1.05;83.33;95738.44;10228212;29;1956;-85
2021/03/19 16:00:23;;;;;;;;;;;2.60;99.90;;;0.65;86.58;95742.38;10225415;29;2270;-82
2021/03/19 16:05:35;;;;;;;;;;;1.90;99.90;;;0.15;86.98;95753.59;10229986;29;2320;-83
2021/03/19 16:10:37;;;;;;;;;;;1.40;99.90;;;0.10;89.19;95763.16;10237202;29;2350;-84
2021/03/19 16:15:42;;;;;;;;;;;2.90;99.90;;;-0.13;89.00;95756.50;10237084;29;2404;-83
2021/03/19 16:20:45;;;;;;;;;;;2.50;99.90;;;-0.03;90.25;95762.16;10225500;29;2384;-85
2021/03/19 16:25:47;;;;;;;;;;;1.10;99.90;;;0.04;90.03;95766.63;10230516;29;2458;-86
2021/03/19 16:30:49;;;;;;;;;;;1.10;99.90;;;-0.01;89.61;95781.25;10247018;29;1957;-83
2021/03/19 16:35:52;;;;;;;;;;;1.20;99.90;;;0.08;89.29;95786.34;10238700;29;1655;-83
2021/03/19 16:40:54;;;;;;;;;;;1.10;99.90;;;0.11;88.96;95794.66;10257270;29;1695;-85
2021/03/19 16:45:57;;;;;;;;;;;1.40;99.90;;;0.04;87.65;95798.34;10256770;29;2324;-85
2021/03/19 16:50:59;;;;;;;;;;;1.10;99.90;;;-0.10;86.30;95814.22;10243444;28;2230;-86
2021/03/19 16:56:01;;;;;;;;;;;1.10;99.90;;;-0.12;86.61;95821.56;10238327;29;2328;-87
2021/03/19 17:01:03;;;;;;;;;;;0.90;99.90;;;-0.22;87.12;95823.78;10251968;29;2086;-87
2021/03/19 17:06:07;;;;;;;;;;;0.90;99.90;;;-0.24;87.45;95823.19;10259003;28;2220;-86
2021/03/19 17:11:09;;;;;;;;;;;0.80;99.90;;;-0.29;87.45;95837.00;10235406;29;1986;-87
2021/03/19 17:16:12;;;;;;;;;;;0.70;99.90;;;-0.22;88.01;95831.72;10250865;28;1749;-85
2021/03/19 17:21:14;;;;;;;;;;;0.80;99.90;;;-0.35;88.52;95837.00;10231314;29;2297;-84
2021/03/19 17:26:19;;;;;;;;;;;0.80;99.90;;;-0.39;89.13;95855.06;10242683;29;2361;-84
2021/03/19 17:31:21;;;;;;;;;;;1.60;99.90;;;-0.43;88.57;95856.53;10241751;29;2305;-82
2021/03/19 17:36:23;;;;;;;;;;;0.70;99.90;;;-0.40;88.76;95861.38;10235735;29;2301;-83
2021/03/19 17:41:25;;;;;;;;;;;0.70;99.90;;;-0.39;88.60;95870.13;10241133;29;2266;-85
2021/03/19 17:46:27;;;;;;;;;;;1.60;99.90;;;-0.38;89.13;95879.66;10246359;29;2261;-85
2021/03/19 17:51:29;;;;;;;;;;;1.60;99.90;;;-0.47;89.34;95875.59;10246337;29;2285;-83
2021/03/19 17:56:38;;;;;;;;;;;0.60;99.90;;;-0.41;88.13;95880.88;10250599;29;2125;-83
2021/03/19 18:01:40;;;;;;;;;;;0.60;99.90;;;-0.44;88.00;95880.50;10260585;29;2140;-82
2021/03/19 18:06:49;;;;;;;;;;;0.50;99.90;;;-0.30;89.05;95887.41;10251646;29;1582;-84
2021/03/19 18:11:51;;;;;;;;;;;0.70;99.90;;;-0.32;87.97;95892.06;10244524;29;2433;-85
2021/03/19 18:16:58;;;;;;;;;;;2.00;99.90;;;-0.40;88.49;95898.34;10251725;29;2408;-84
2021/03/19 18:22:00;;;;;;;;;;;0.70;99.90;;;-0.47;89.69;95897.53;10242524;29;2296;-84
2021/03/19 18:27:02;;;;;;;;;;;0.80;99.90;;;-0.56;90.11;95910.13;10243662;29;2302;-82
2021/03/19 18:32:04;;;;;;;;;;;1.60;99.90;;;-0.78;90.58;95913.13;10236748;29;2298;-85
2021/03/19 18:37:11;;;;;;;;;;;0.80;99.90;;;-0.87;91.70;95913.31;10226939;29;2433;-83
2021/03/19 18:42:14;;;;;;;;;;;0.20;99.90;;;-0.95;91.79;95920.59;10236234;29;2379;-85
2021/03/19 18:47:20;;;;;;;;;;;0.20;99.90;;;-1.06;92.25;95918.53;10239835;29;2708;-84
2021/03/19 18:52:23;;;;;;;;;;;1.70;99.90;;;-1.03;92.36;95920.75;10212862;29;3287;-87
2021/03/19 18:57:25;;;;;;;;;;;1.10;99.90;;;-1.10;92.51;95940.00;10229527;29;3493;-81
2021/03/19 19:02:28;;;;;;;;;;;0.00;99.90;;;-1.14;92.28;95933.50;10229159;29;2861;-85
2021/03/19 19:07:35;;;;;;;;;;;-0.10;99.90;;;-1.06;92.74;95940.44;10248166;29;2396;-84
2021/03/19 19:12:38;;;;;;;;;;;0.00;99.90;;;-1.16;93.29;95946.06;10250325;29;2838;-83
2021/03/19 19:17:40;;;;;;;;;;;0.00;99.90;;;-1.11;93.08;95950.75;10232999;28;2222;-84
2021/03/19 19:22:43;;;;;;;;;;;0.00;99.90;;;-1.21;92.84;95964.31;10252293;28;2340;-86
2021/03/19 19:27:46;;;;;;;;;;;0.00;99.90;;;-1.14;92.65;95956.44;10258359;28;1945;-89
2021/03/19 19:32:58;;;;;;;;;;;1.00;99.90;;;-1.14;91.39;95965.16;10271939;28;1994;-84
2021/03/19 19:38:00;;;;;;;;;;;-0.10;99.90;;;-1.09;90.48;95969.84;10262221;29;2278;-85
2021/03/19 19:43:02;;;;;;;;;;;1.10;99.90;;;-1.15;90.01;95978.53;10257091;29;2446;-85
2021/03/19 19:48:05;;;;;;;;;;;-0.10;99.90;;;-1.18;88.94;95969.19;10252864;28;2284;-83
2021/03/19 19:53:07;;;;;;;;;;;-0.10;99.90;;;-1.21;88.22;95980.16;10225838;29;2571;-84
2021/03/19 19:58:09;;;;;;;;;;;2.20;99.90;;;-1.16;88.61;95983.00;10244416;29;2367;-85
2021/03/19 20:03:29;;;;;;;;;;;-0.10;99.90;;;-1.16;86.84;95995.38;10229791;29;2542;-82
2021/03/19 20:08:31;;;;;;;;;;;0.00;99.90;;;-1.19;87.77;95991.31;10228977;29;2426;-83
2021/03/19 20:13:33;;;;;;;;;;;0.00;99.90;;;-1.21;88.30;96001.25;10236429;29;2375;-84
2021/03/19 20:18:35;;;;;;;;;;;-0.10;99.90;;;-1.20;88.22;96004.69;10247961;29;2177;-85
2021/03/19 20:23:39;;;;;;;;;;;-0.10;99.90;;;-1.05;88.35;96010.66;10248281;29;1752;-84
2021/03/19 20:28:45;;;;;;;;;;;-0.10;99.90;;;-1.23;88.69;96008.53;10254138;28;1114;-85
2021/03/19 20:33:46;;;;;;;;;;;1.10;99.90;;;-1.26;88.82;96024.75;10246018;29;1972;-83
2021/03/19 20:38:49;;;;;;;;;;;-0.10;99.90;;;-1.23;89.90;96028.81;10265902;29;1700;-83
2021/03/19 20:43:55;;;;;;;;;;;1.30;99.90;;;-1.29;90.65;96030.41;10253041;29;1681;-85
2021/03/19 20:48:57;;;;;;;;;;;1.00;99.90;;;-1.28;90.16;96037.28;10249427;29;1633;-86
2021/03/19 20:53:59;;;;;;;;;;;-0.20;99.90;;;-1.34;90.44;96042.53;10262270;29;1911;-86
2021/03/19 20:59:01;;;;;;;;;;;1.60;99.90;;;-1.36;91.44;96048.81;10263044;28;1511;-87
2021/03/19 21:04:03;;;;;;;;;;;-0.30;99.90;;;-1.29;90.97;96050.69;10267310;28;1300;-88
2021/03/19 21:09:06;;;;;;;;;;;-0.20;99.90;;;-1.41;91.62;96047.75;10255461;29;1768;-88
2021/03/19 21:14:07;;;;;;;;;;;1.90;99.90;;;-1.49;90.76;96053.19;10251745;29;1891;-87
2021/03/19 21:19:09;;;;;;;;;;;-0.30;99.90;;;-1.41;90.36;96060.94;10272281;28;1575;-87
2021/03/19 21:24:12;;;;;;;;;;;-0.30;99.90;;;-1.42;90.00;96067.22;10256284;29;1637;-86
2021/03/19 21:29:17;;;;;;;;;;;0.20;99.90;;;-1.50;89.44;96060.28;10249599;29;1281;-87
2021/03/19 21:34:20;;;;;;;;;;;-0.30;99.90;;;-1.49;88.21;96075.09;10245594;29;1915;-86
2021/03/19 21:39:33;;;;;;;;;;;0.40;99.90;;;-1.48;88.19;96068.81;10235337;28;1317;-88
2021/03/19 21:44:35;;;;;;;;;;;-0.40;99.90;;;-1.44;88.50;96069.25;10254474;29;1313;-86
2021/03/19 21:49:37;;;;;;;;;;;-0.30;99.90;;;-1.32;89.12;96067.72;10249454;29;1256;-86
2021/03/19 21:54:40;;;;;;;;;;;0.40;99.90;;;-1.24;87.82;96064.13;10249198;29;1891;-86
2021/03/19 21:59:56;;;;;;;;;;;-0.30;99.90;;;-1.34;87.62;96077.63;10253945;29;1562;-85
2021/03/19 22:05:04;;;;;;;;;;;2.40;99.90;;;-1.37;87.17;96075.38;10272036;28;1483;-84
2021/03/19 22:10:06;;;;;;;;;;;-0.20;99.90;;;-1.42;86.65;96086.50;10267674;28;1598;-84
2021/03/19 22:15:08;;;;;;;;;;;1.60;99.90;;;-1.32;87.96;96090.63;10270886;29;1892;-87
2021/03/19 22:20:10;;;;;;;;;;;0.40;99.90;;;-1.37;86.10;96091.19;10251470;29;1697;-88
2021/03/19 22:25:12;;;;;;;;;;;1.50;99.90;;;-1.37;87.32;96099.13;10251649;29;1341;-84
2021/03/19 22:30:14;;;;;;;;;;;-0.30;99.90;;;-1.46;86.95;96102.91;10250084;29;1785;-85
2021/03/19 22:35:17;;;;;;;;;;;-0.30;99.90;;;-1.46;87.12;96105.53;10244607;29;1903;-83
2021/03/19 22:40:19;;;;;;;;;;;0.90;99.90;;;-1.57;87.14;96103.41;10233492;29;2208;-86
2021/03/19 22:45:21;;;;;;;;;;;-0.30;99.90;;;-1.70;86.83;96112.84;10249051;29;2231;-87
2021/03/19 22:50:23;;;;;;;;;;;-0.50;99.90;;;-1.73;87.88;96118.47;10246957;28;2134;-87
2021/03/19 22:55:25;;;;;;;;;;;-0.60;99.90;;;-1.81;88.20;96123.88;10245004;29;1906;-81
2021/03/19 23:00:27;;;;;;;;;;;-0.60;99.90;;;-1.87;88.02;96113.25;10248830;29;1955;-85
2021/03/19 23:05:30;;;;;;;;;;;1.50;99.90;;;-1.94;87.79;96114.00;10239853;29;2467;-85
2021/03/19 23:10:32;;;;;;;;;;;-0.70;99.90;;;-2.06;87.33;96112.06;10266404;28;1976;-86
2021/03/19 23:15:34;;;;;;;;;;;-0.80;99.90;;;-2.26;87.23;96107.38;10282022;28;2036;-85
2021/03/19 23:20:36;;;;;;;;;;;-1.00;99.90;;;-2.25;86.45;96119.53;10228369;29;2138;-83
2021/03/19 23:25:39;;;;;;;;;;;-1.10;99.90;;;-2.38;86.89;96123.84;10246240;28;1929;-85
2021/03/19 23:30:41;;;;;;;;;;;-0.20;99.90;;;-2.50;87.15;96120.84;10238583;29;2440;-84
2021/03/19 23:35:45;;;;;;;;;;;-1.20;99.90;;;-2.53;87.75;96126.50;10231834;29;2042;-84
2021/03/19 23:40:55;;;;;;;;;;;0.50;99.90;;;-2.62;87.83;96128.41;10230302;29;2091;-83